Berlin — 9HA2295 — position and weather

sailwx.info

Track history (hours):
 
Tides and Currents Weather Stations Pressure Air Temp Water Temp Dewpoint Dewpoint Depression Visibility Wind Speed Wind Dir Waves Ship Positions

Berlin

Last reported at 2017-Sep-26 20:00 UTC. Time now 2017-Sep-26 20:27 UTC.
Position N 37°32' E 024°46'.

Length 140 m; draft 5 m.

Type: Ship. MMSI: 248277000.

Date/timePositionNaut miles runAvg speedWind from/ knotsBaromVisibWave heightAir tempDewpointWater temp
2017-Sep-26 20:00N 37°32' E 024°46'714.6
2017-Sep-26 19:30N 37°32' E 024°56'714.4
2017-Sep-26 19:00N 37°30' E 025°04'714.7
2017-Sep-26 18:30N 37°28' E 025°13'5 7.7
2017-Sep-26 17:53N 37°27' E 025°19'0 0.0
2017-Sep-26 17:29N 37°27' E 025°19'0 0.0
2017-Sep-26 16:56N 37°27' E 025°19'0 0.1
2017-Sep-26 16:29N 37°27' E 025°19'0 0.0
2017-Sep-26 15:59N 37°27' E 025°19'0 0.0
2017-Sep-26 15:29N 37°27' E 025°19'0 0.0
2017-Sep-26 14:59N 37°27' E 025°19'0 0.0
2017-Sep-26 14:29N 37°27' E 025°19'0 0.9
2017-Sep-26 14:00N 37°27' E 025°19'4 8.2
2017-Sep-26 13:28N 37°23' E 025°17'613.4
2017-Sep-26 13:01N 37°20' E 025°24'713.8
2017-Sep-26 12:30N 37°17' E 025°32'713.8
2017-Sep-26 12:00N 37°12' E 025°38'714.1
2017-Sep-26 11:30N 37°07' E 025°44'  
2017-Sep-21 23:51N 42°31' E 010°17'514.8
2017-Sep-21 23:29N 42°35' E 010°12'2114.9
2017-Sep-21 22:06N 42°48' E 009°51'114.9
2017-Sep-21 22:01N 42°49' E 009°49'2913.9
2017-Sep-21 19:55N 43°07' E 009°18'1915.2
2017-Sep-21 18:39N 43°13' E 008°53'1814.8
2017-Sep-21 17:24N 43°20' E 008°30'3414.6
2017-Sep-21 15:06N 43°32' E 007°46'214.4
2017-Sep-21 14:56N 43°33' E 007°43'614.1
2017-Sep-21 14:30N 43°35' E 007°35'713.6
2017-Sep-21 13:59N 43°37' E 007°26'7 0.7
2017-Sep-21 04:01N 43°40' E 007°17'1 7.8
2017-Sep-21 03:51N 43°39' E 007°17'3 8.1
2017-Sep-21 03:30N 43°36' E 007°16'4 7.7
2017-Sep-21 03:00N 43°33' E 007°15'4 7.3
2017-Sep-21 02:30N 43°29' E 007°13'4 7.7
2017-Sep-21 02:00N 43°26' E 007°10'4 7.7
2017-Sep-21 01:31N 43°24' E 007°06'4 7.5
2017-Sep-21 01:01N 43°21' E 007°03'4 7.5
2017-Sep-21 00:31N 43°18' E 006°60'3 6.3
2017-Sep-21 00:01N 43°16' E 006°56'4 7.1
2017-Sep-20 23:29N 43°17' E 006°51'3 7.2
2017-Sep-20 23:01N 43°17' E 006°46'4 7.5
2017-Sep-20 22:27N 43°18' E 006°41'3 6.8
2017-Sep-20 22:01N 43°16' E 006°37'0 0.5
2017-Sep-20 21:29N 43°16' E 006°37'0 0.0
2017-Sep-20 20:59N 43°16' E 006°37'0 0.0
2017-Sep-20 20:14N 43°16' E 006°37'0 0.0
2017-Sep-20 19:56N 43°16' E 006°37'0 0.0
2017-Sep-20 19:26N 43°16' E 006°37'0 0.0
2017-Sep-20 18:20N 43°16' E 006°37'0 0.0
2017-Sep-20 17:56N 43°16' E 006°37'0 0.0
2017-Sep-20 17:29N 43°16' E 006°37'0 0.0
2017-Sep-20 16:59N 43°16' E 006°37'0 0.0
2017-Sep-20 16:29N 43°16' E 006°37'0 0.0
2017-Sep-20 15:56N 43°16' E 006°37'0 0.1
2017-Sep-20 15:29N 43°16' E 006°37'0 0.0
2017-Sep-20 14:59N 43°16' E 006°37'15 1.3
2017-Sep-20 03:39N 43°17' E 006°58'212.9
2017-Sep-20 03:30N 43°17' E 007°00'612.9
2017-Sep-20 03:00N 43°16' E 007°09'713.2
2017-Sep-20 02:31N 43°16' E 007°18'714.1
2017-Sep-20 02:00N 43°15' E 007°28'714.3
2017-Sep-20 01:29N 43°15' E 007°38'714.6
2017-Sep-20 01:00N 43°15' E 007°48'714.5
2017-Sep-20 00:31N 43°14' E 007°58'814.2
2017-Sep-19 23:56N 43°14' E 008°09'713.9
2017-Sep-19 23:25N 43°13' E 008°19'713.9
2017-Sep-19 22:56N 43°13' E 008°28'614.0
2017-Sep-19 22:30N 43°12' E 008°36'714.0
2017-Sep-19 22:00N 43°12' E 008°46'714.0
2017-Sep-19 21:31N 43°11' E 008°55'713.7
2017-Sep-19 21:00N 43°10' E 009°05'813.2
2017-Sep-19 20:25N 43°09' E 009°15'513.0
2017-Sep-19 20:00N 43°09' E 009°22'713.0
2017-Sep-19 19:30N 43°06' E 009°31'1912.9
2017-Sep-19 18:00N 42°51' E 009°47'1414.5
2017-Sep-19 17:02N 42°52' E 010°06'  
2017-Sep-16 20:48N 43°15' E 007°45'415.3
2017-Sep-16 20:30N 43°18' E 007°40'  
Track history (hours):
 
Tides and Currents Weather Stations Pressure Air Temp Water Temp Dewpoint Dewpoint Depression Visibility Wind Speed Wind Dir Waves Ship Positions

Berlin

Last reported at 2017-Sep-26 20:00 UTC. Time now 2017-Sep-26 20:27 UTC.
Position N 37°32' E 024°46'.

Length 140 m; draft 5 m.

Type: Ship. MMSI: 248277000.

Date/timePositionNaut miles runAvg speedWind from/ knotsBaromVisibWave heightAir tempDewpointWater temp
2017-Sep-26 20:00N 37°32' E 024°46'714.6
2017-Sep-26 19:30N 37°32' E 024°56'714.4
2017-Sep-26 19:00N 37°30' E 025°04'714.7
2017-Sep-26 18:30N 37°28' E 025°13'5 7.7
2017-Sep-26 17:53N 37°27' E 025°19'0 0.0
2017-Sep-26 17:29N 37°27' E 025°19'0 0.0
2017-Sep-26 16:56N 37°27' E 025°19'0 0.1
2017-Sep-26 16:29N 37°27' E 025°19'0 0.0
2017-Sep-26 15:59N 37°27' E 025°19'0 0.0
2017-Sep-26 15:29N 37°27' E 025°19'0 0.0
2017-Sep-26 14:59N 37°27' E 025°19'0 0.0
2017-Sep-26 14:29N 37°27' E 025°19'0 0.9
2017-Sep-26 14:00N 37°27' E 025°19'4 8.2
2017-Sep-26 13:28N 37°23' E 025°17'613.4
2017-Sep-26 13:01N 37°20' E 025°24'713.8
2017-Sep-26 12:30N 37°17' E 025°32'713.8
2017-Sep-26 12:00N 37°12' E 025°38'714.1
2017-Sep-26 11:30N 37°07' E 025°44'  
2017-Sep-21 23:51N 42°31' E 010°17'514.8
2017-Sep-21 23:29N 42°35' E 010°12'2114.9
2017-Sep-21 22:06N 42°48' E 009°51'114.9
2017-Sep-21 22:01N 42°49' E 009°49'2913.9
2017-Sep-21 19:55N 43°07' E 009°18'1915.2
2017-Sep-21 18:39N 43°13' E 008°53'1814.8
2017-Sep-21 17:24N 43°20' E 008°30'3414.6
2017-Sep-21 15:06N 43°32' E 007°46'214.4
2017-Sep-21 14:56N 43°33' E 007°43'614.1
2017-Sep-21 14:30N 43°35' E 007°35'713.6
2017-Sep-21 13:59N 43°37' E 007°26'7 0.7
2017-Sep-21 04:01N 43°40' E 007°17'1 7.8
2017-Sep-21 03:51N 43°39' E 007°17'3 8.1
2017-Sep-21 03:30N 43°36' E 007°16'4 7.7
2017-Sep-21 03:00N 43°33' E 007°15'4 7.3
2017-Sep-21 02:30N 43°29' E 007°13'4 7.7
2017-Sep-21 02:00N 43°26' E 007°10'4 7.7
2017-Sep-21 01:31N 43°24' E 007°06'4 7.5
2017-Sep-21 01:01N 43°21' E 007°03'4 7.5
2017-Sep-21 00:31N 43°18' E 006°60'3 6.3
2017-Sep-21 00:01N 43°16' E 006°56'4 7.1
2017-Sep-20 23:29N 43°17' E 006°51'3 7.2
2017-Sep-20 23:01N 43°17' E 006°46'4 7.5
2017-Sep-20 22:27N 43°18' E 006°41'3 6.8
2017-Sep-20 22:01N 43°16' E 006°37'0 0.5
2017-Sep-20 21:29N 43°16' E 006°37'0 0.0
2017-Sep-20 20:59N 43°16' E 006°37'0 0.0
2017-Sep-20 20:14N 43°16' E 006°37'0 0.0
2017-Sep-20 19:56N 43°16' E 006°37'0 0.0
2017-Sep-20 19:26N 43°16' E 006°37'0 0.0
2017-Sep-20 18:20N 43°16' E 006°37'0 0.0
2017-Sep-20 17:56N 43°16' E 006°37'0 0.0
2017-Sep-20 17:29N 43°16' E 006°37'0 0.0
2017-Sep-20 16:59N 43°16' E 006°37'0 0.0
2017-Sep-20 16:29N 43°16' E 006°37'0 0.0
2017-Sep-20 15:56N 43°16' E 006°37'0 0.1
2017-Sep-20 15:29N 43°16' E 006°37'0 0.0
2017-Sep-20 14:59N 43°16' E 006°37'15 1.3
2017-Sep-20 03:39N 43°17' E 006°58'212.9
2017-Sep-20 03:30N 43°17' E 007°00'612.9
2017-Sep-20 03:00N 43°16' E 007°09'713.2
2017-Sep-20 02:31N 43°16' E 007°18'714.1
2017-Sep-20 02:00N 43°15' E 007°28'714.3
2017-Sep-20 01:29N 43°15' E 007°38'714.6
2017-Sep-20 01:00N 43°15' E 007°48'714.5
2017-Sep-20 00:31N 43°14' E 007°58'814.2
2017-Sep-19 23:56N 43°14' E 008°09'713.9
2017-Sep-19 23:25N 43°13' E 008°19'713.9
2017-Sep-19 22:56N 43°13' E 008°28'614.0
2017-Sep-19 22:30N 43°12' E 008°36'714.0
2017-Sep-19 22:00N 43°12' E 008°46'714.0
2017-Sep-19 21:31N 43°11' E 008°55'713.7
2017-Sep-19 21:00N 43°10' E 009°05'813.2
2017-Sep-19 20:25N 43°09' E 009°15'513.0
2017-Sep-19 20:00N 43°09' E 009°22'713.0
2017-Sep-19 19:30N 43°06' E 009°31'1912.9
2017-Sep-19 18:00N 42°51' E 009°47'1414.5
2017-Sep-19 17:02N 42°52' E 010°06'  
2017-Sep-16 20:48N 43°15' E 007°45'415.3
2017-Sep-16 20:30N 43°18' E 007°40'  

Dump ship's entire track history